Barnum, Texas
Current Conditions -  °F | °C
As of 2:53 AM on Monday 20 Oct 2014 (Local Time) from KLFK Reporting Station
Clear Clear  
Wind Chill: 58°   Ceiling: Unl
Heat Index: 58°   Visibility: 10mi
Dew Point: 53°   Wind: 5mph
Humidity: 84%   Direction: 80°E
Pressure: 30.04"   Gusts: NA
Location:  31.024°N, 94.7686°W
Report Text: KLFK 200753Z AUTO 08004KT 10SM CLR 14/12 A3004 RMK AO2 SLP170 T01440117 $
Loading
Personal Weather Stations






























Interactive Weather Map
Tropical Storm Tracking
New forecast layout! Learn more

10-Day Weather Forecast

Advertisements
Track Severe Weather on mobile